Andersonville, Georgia
Current Conditions -  °F | °C
As of 2:35 PM on Thursday 30 Oct 2014 (Local Time) from KACJ Reporting Station
Clear Clear  
Wind Chill: 68°   Ceiling: Unl
Heat Index: 68°   Visibility: 10mi
Dew Point: 45°   Wind: 6mph
Humidity: 43%   Direction: 330°NNW
Pressure: 30"   Gusts: NA
Location:  32.2°N, 84.14°W
Report Text: KACJ 301835Z AUTO 33005KT 10SM CLR 20/07 A3000 RMK AO2
Loading
Personal Weather Stations






























Interactive Weather Map
Tropical Storm Tracking
New forecast layout! Learn more

10-Day Weather Forecast

Advertisements
Track Severe Weather on mobile